Observation data for Aspermont on 08/20/2019      Previous  Date       Current Mesonet Observations  Soil Data  Daily Summary Page  Observations in Plain Language
KASR 200500Z 13008KT 31/18 A30 RMK A01 T03070178  RH  047%=      5-min Rain = 0
KASR 200505Z 13008KT 31/18 A30 RMK A01 T03070178  RH  047%=      5-min Rain = 0
KASR 200510Z 14008KT 31/18 A30 RMK A01 T03070178  RH  047%=      5-min Rain = 0
KASR 200515Z 14008KT 31/18 A30 RMK A01 T03060178  RH  048%=      5-min Rain = 0
KASR 200520Z 14008KT 31/18 A30 RMK A01 T03060178  RH  048%=      5-min Rain = 0
KASR 200525Z 14008KT 31/18 A30 RMK A01 T03060178  RH  048%=      5-min Rain = 0
KASR 200530Z 14008G14KT 31/18 A30 RMK A01 T03060178  RH  048%=      5-min Rain = 0
KASR 200535Z 14008KT 31/18 A30 RMK A01 T03060178  RH  048%=      5-min Rain = 0
KASR 200540Z 14008G14KT 31/18 A30 RMK A01 T03050178  RH  048%=      5-min Rain = 0
KASR 200545Z 14009KT 31/18 A30 RMK A01 T03050178  RH  048%=      5-min Rain = 0
KASR 200550Z 14009KT 30/18 A30 RMK A01 T03040178  RH  048%=      5-min Rain = 0
KASR 200555Z 14009G15KT 30/18 A30 RMK A01 T03030178  RH  048%=      5-min Rain = 0
KASR 200600Z 14009G14KT 30/18 A30 RMK A01 T03030178  RH  048%=      5-min Rain = 0
KASR 200605Z 14009KT 30/18 A30 RMK A01 T03020178  RH  049%=      5-min Rain = 0
KASR 200610Z 15009G14KT 30/18 A30 RMK A01 T03010178  RH  049%=      5-min Rain = 0
KASR 200615Z 14009G15KT 30/18 A30 RMK A01 T03010178  RH  049%=      5-min Rain = 0
KASR 200620Z 15008G14KT 30/18 A30 RMK A01 T03000178  RH  049%=      5-min Rain = 0
KASR 200625Z 15009KT 30/18 A30 RMK A01 T02990178  RH  049%=      5-min Rain = 0
KASR 200630Z 15010KT 30/18 A30 RMK A01 T02990178  RH  050%=      5-min Rain = 0
KASR 200635Z 15010KT 30/18 A30 RMK A01 T02980178  RH  050%=      5-min Rain = 0
KASR 200640Z 15010KT 30/18 A30 RMK A01 T02980178  RH  050%=      5-min Rain = 0
KASR 200645Z 15009KT 30/18 A30 RMK A01 T02970177  RH  050%=      5-min Rain = 0
KASR 200650Z 15010KT 30/18 A30 RMK A01 T02960177  RH  050%=      5-min Rain = 0
KASR 200655Z 15008G13KT 30/18 A30 RMK A01 T02950177  RH  050%=      5-min Rain = 0
KASR 200700Z 15009KT 29/18 A30 RMK A01 T02940177  RH  051%=      5-min Rain = 0
KASR 200705Z 15009KT 29/18 A30 RMK A01 T02930177  RH  051%=      5-min Rain = 0
KASR 200710Z 16008G13KT 29/18 A30 RMK A01 T02920177  RH  051%=      5-min Rain = 0
KASR 200715Z 16008KT 29/18 A30 RMK A01 T02910177  RH  051%=      5-min Rain = 0
KASR 200720Z 16009KT 29/18 A30 RMK A01 T02900177  RH  052%=      5-min Rain = 0
KASR 200725Z 16008KT 29/18 A30 RMK A01 T02890177  RH  052%=      5-min Rain = 0
KASR 200730Z 15008G13KT 29/18 A30 RMK A01 T02890176  RH  052%=      5-min Rain = 0
KASR 200735Z 15008KT 29/18 A30 RMK A01 T02880176  RH  052%=      5-min Rain = 0
KASR 200740Z 15008KT 29/18 A30 RMK A01 T02880176  RH  052%=      5-min Rain = 0
KASR 200745Z 15008KT 29/18 A30 RMK A01 T02880176  RH  052%=      5-min Rain = 0
KASR 200750Z 16008KT 29/18 A30 RMK A01 T02870175  RH  052%=      5-min Rain = 0
KASR 200755Z 15008KT 29/18 A30 RMK A01 T02870175  RH  052%=      5-min Rain = 0
KASR 200800Z 16009KT 29/18 A30 RMK A01 T02870175  RH  052%=      5-min Rain = 0
KASR 200805Z 16008KT 29/18 A2999 RMK A01 T02850175  RH  052%=      5-min Rain = 0
KASR 200810Z 16008KT 28/17 A2999 RMK A01 T02840174  RH  053%=      5-min Rain = 0
KASR 200815Z 16008KT 28/17 A2999 RMK A01 T02830174  RH  053%=      5-min Rain = 0
KASR 200820Z 16008KT 28/17 A2999 RMK A01 T02820174  RH  053%=      5-min Rain = 0
KASR 200825Z 16007KT 28/17 A2999 RMK A01 T02820174  RH  053%=      5-min Rain = 0
KASR 200830Z 16007KT 28/17 A2999 RMK A01 T02820174  RH  053%=      5-min Rain = 0
KASR 200835Z 16007KT 28/17 A2999 RMK A01 T02800174  RH  054%=      5-min Rain = 0
KASR 200840Z 16008KT 28/17 A2999 RMK A01 T02800173  RH  054%=      5-min Rain = 0
KASR 200845Z 17008KT 28/17 A2999 RMK A01 T02790173  RH  054%=      5-min Rain = 0
KASR 200850Z 16007KT 28/17 A30 RMK A01 T02780173  RH  054%=      5-min Rain = 0
KASR 200855Z 15006KT 28/17 A30 RMK A01 T02770172  RH  054%=      5-min Rain = 0
KASR 200900Z 15006KT 28/17 A30 RMK A01 T02750172  RH  055%=      5-min Rain = 0
KASR 200905Z 15006KT 27/17 A30 RMK A01 T02740172  RH  055%=      5-min Rain = 0
KASR 200910Z 15006KT 27/17 A30 RMK A01 T02730172  RH  055%=      5-min Rain = 0
KASR 200915Z 14005KT 27/17 A30 RMK A01 T02710172  RH  056%=      5-min Rain = 0
KASR 200920Z 14005KT 27/17 A30 RMK A01 T02690172  RH  056%=      5-min Rain = 0
KASR 200925Z 15005KT 27/17 A3001 RMK A01 T02680172  RH  057%=      5-min Rain = 0
KASR 200930Z 16004KT 27/17 A3001 RMK A01 T02650171  RH  057%=      5-min Rain = 0
KASR 200935Z 16003KT 26/17 A3001 RMK A01 T02640170  RH  058%=      5-min Rain = 0
KASR 200940Z 16003KT 26/17 A3001 RMK A01 T02620170  RH  058%=      5-min Rain = 0
KASR 200945Z 16003KT 26/17 A3001 RMK A01 T02580170  RH  060%=      5-min Rain = 0
KASR 200950Z 16004KT 25/17 A3001 RMK A01 T02540170  RH  061%=      5-min Rain = 0
KASR 200955Z 16003KT 25/17 A3001 RMK A01 T02500170  RH  063%=      5-min Rain = 0
KASR 201000Z 16004KT 25/17 A3001 RMK A01 T02460170  RH  064%=      5-min Rain = 0
KASR 201005Z 16004KT 25/17 A3001 RMK A01 T02450170  RH  065%=      5-min Rain = 0
KASR 201010Z 16003KT 24/17 A3001 RMK A01 T02440170  RH  065%=      5-min Rain = 0
KASR 201015Z 17003KT 24/17 A3001 RMK A01 T02410169  RH  066%=      5-min Rain = 0
KASR 201020Z 17004KT 24/17 A3001 RMK A01 T02370170  RH  068%=      5-min Rain = 0
KASR 201025Z 17005KT 24/17 A3001 RMK A01 T02370171  RH  068%=      5-min Rain = 0
KASR 201030Z 17005KT 24/17 A3001 RMK A01 T02390171  RH  067%=      5-min Rain = 0
KASR 201035Z 18005KT 24/17 A3001 RMK A01 T02410171  RH  067%=      5-min Rain = 0
KASR 201040Z 19006KT 24/17 A3001 RMK A01 T02420172  RH  066%=      5-min Rain = 0
KASR 201045Z 19006KT 24/17 A3001 RMK A01 T02400172  RH  067%=      5-min Rain = 0
KASR 201050Z 19007KT 24/17 A3001 RMK A01 T02390172  RH  068%=      5-min Rain = 0
KASR 201055Z 18007KT 24/17 A3001 RMK A01 T02400172  RH  067%=      5-min Rain = 0
KASR 201100Z 17006KT 24/17 A3001 RMK A01 T02440172  RH  066%=      5-min Rain = 0
KASR 201105Z 17005KT 25/17 A3001 RMK A01 T02480172  RH  064%=      5-min Rain = 0
KASR 201110Z 17005KT 25/17 A3001 RMK A01 T02490172  RH  064%=      5-min Rain = 0
KASR 201115Z 17005KT 25/17 A3001 RMK A01 T02490172  RH  064%=      5-min Rain = 0
KASR 201120Z 17004KT 25/17 A3002 RMK A01 T02470172  RH  065%=      5-min Rain = 0
KASR 201125Z 17002KT 25/17 A3002 RMK A01 T02450172  RH  065%=      5-min Rain = 0
KASR 201130Z 18002KT 24/17 A3002 RMK A01 T02420171  RH  066%=      5-min Rain = 0
KASR 201135Z 18003KT 24/17 A3002 RMK A01 T02360171  RH  068%=      5-min Rain = 0
KASR 201140Z 15002KT 23/17 A3002 RMK A01 T02320171  RH  070%=      5-min Rain = 0
KASR 201145Z 16002KT 23/17 A3002 RMK A01 T02300169  RH  070%=      5-min Rain = 0
KASR 201150Z 16002KT 23/17 A3003 RMK A01 T02270168  RH  071%=      5-min Rain = 0
KASR 201155Z 15002KT 23/17 A3003 RMK A01 T02250168  RH  072%=      5-min Rain = 0
KASR 201200Z 18002KT 23/17 A3003 RMK A01 T02260168  RH  071%=      5-min Rain = 0
KASR 201205Z 20002KT 23/17 A3003 RMK A01 T02260168  RH  072%=      5-min Rain = 0
KASR 201210Z 19002KT 23/17 A3003 RMK A01 T02260169  RH  072%=      5-min Rain = 0
KASR 201215Z 18002KT 23/17 A3003 RMK A01 T02250169  RH  072%=      5-min Rain = 0
KASR 201220Z 18003KT 23/17 A3003 RMK A01 T02250170  RH  072%=      5-min Rain = 0
KASR 201225Z 20003KT 23/17 A3003 RMK A01 T02290170  RH  071%=      5-min Rain = 0
KASR 201230Z 21003KT 23/17 A3003 RMK A01 T02320171  RH  070%=      5-min Rain = 0
KASR 201235Z 21003KT 23/17 A3003 RMK A01 T02340171  RH  070%=      5-min Rain = 0
KASR 201240Z 23003KT 24/17 A3003 RMK A01 T02350172  RH  069%=      5-min Rain = 0
KASR 201245Z 20002KT 24/17 A3003 RMK A01 T02360173  RH  069%=      5-min Rain = 0
KASR 201250Z 20004KT 24/17 A3003 RMK A01 T02400174  RH  068%=      5-min Rain = 0
KASR 201255Z 21002KT 25/18 A3003 RMK A01 T02460175  RH  066%=      5-min Rain = 0
KASR 201300Z 20001KT 25/18 A3003 RMK A01 T02520176  RH  064%=      5-min Rain = 0
KASR 201305Z 20004KT 26/18 A3003 RMK A01 T02570175  RH  062%=      5-min Rain = 0
KASR 201310Z 20004KT 26/18 A3003 RMK A01 T02600176  RH  062%=      5-min Rain = 0
KASR 201315Z 20004KT 26/18 A3003 RMK A01 T02630177  RH  061%=      5-min Rain = 0
KASR 201320Z 20003KT 27/18 A3004 RMK A01 T02680178  RH  059%=      5-min Rain = 0
KASR 201325Z 19004KT 27/18 A3004 RMK A01 T02740178  RH  057%=      5-min Rain = 0
KASR 201330Z 19004KT 28/18 A3004 RMK A01 T02780178  RH  056%=      5-min Rain = 0
KASR 201335Z 19004KT 28/18 A3004 RMK A01 T02820179  RH  055%=      5-min Rain = 0
KASR 201340Z 20005KT 29/18 A3004 RMK A01 T02860179  RH  054%=      5-min Rain = 0
KASR 201345Z 20004KT 29/18 A3004 RMK A01 T02880179  RH  053%=      5-min Rain = 0
KASR 201350Z 21005KT 29/18 A3004 RMK A01 T02910179  RH  052%=      5-min Rain = 0
KASR 201355Z 21006KT 30/18 A3004 RMK A01 T02950179  RH  051%=      5-min Rain = 0
KASR 201400Z 22006KT 30/18 A3004 RMK A01 T02990179  RH  050%=      5-min Rain = 0
KASR 201405Z 21007KT 30/18 A3004 RMK A01 T03010180  RH  050%=      5-min Rain = 0
KASR 201410Z 21007G12KT 30/18 A3004 RMK A01 T03030181  RH  049%=      5-min Rain = 0
KASR 201415Z 21009KT 30/18 A3004 RMK A01 T03040181  RH  049%=      5-min Rain = 0
KASR 201420Z 21008KT 31/18 A3005 RMK A01 T03070182  RH  049%=      5-min Rain = 0
KASR 201425Z 21010KT 31/18 A3005 RMK A01 T03090184  RH  048%=      5-min Rain = 0
KASR 201430Z 21010KT 31/19 A3005 RMK A01 T03090185  RH  049%=      5-min Rain = 0
KASR 201435Z 21010KT 31/19 A3005 RMK A01 T03110186  RH  049%=      5-min Rain = 0
KASR 201440Z 21010KT 31/19 A3005 RMK A01 T03120186  RH  049%=      5-min Rain = 0
KASR 201445Z 20012KT 32/19 A3005 RMK A01 T03150188  RH  048%=      5-min Rain = 0
KASR 201450Z 20010KT 32/19 A3005 RMK A01 T03170189  RH  048%=      5-min Rain = 0
KASR 201455Z 22011KT 32/19 A3005 RMK A01 T03180189  RH  048%=      5-min Rain = 0
KASR 201500Z 21010KT 32/19 A3005 RMK A01 T03180189  RH  047%=      5-min Rain = 0
KASR 201505Z 22009KT 32/19 A3005 RMK A01 T03220189  RH  046%=      5-min Rain = 0
KASR 201510Z 21008KT 33/19 A3005 RMK A01 T03250190  RH  046%=      5-min Rain = 0
KASR 201515Z 21009KT 33/19 A3005 RMK A01 T03280190  RH  045%=      5-min Rain = 0
KASR 201520Z 20007KT 33/19 A3005 RMK A01 T03300189  RH  045%=      5-min Rain = 0
KASR 201525Z 19009KT 33/19 A3005 RMK A01 T03290188  RH  045%=      5-min Rain = 0
KASR 201530Z 21008KT 33/19 A3005 RMK A01 T03300189  RH  044%=      5-min Rain = 0
KASR 201535Z 20007G12KT 33/19 A3005 RMK A01 T03340190  RH  044%=      5-min Rain = 0
KASR 201540Z 21009KT 34/19 A3005 RMK A01 T03370191  RH  043%=      5-min Rain = 0
KASR 201545Z 22008KT 34/19 A3005 RMK A01 T03380191  RH  043%=      5-min Rain = 0
KASR 201550Z 21008KT 34/19 A3005 RMK A01 T03360191  RH  044%=      5-min Rain = 0
KASR 201555Z 22007KT 34/19 A3005 RMK A01 T03390192  RH  043%=      5-min Rain = 0
KASR 201600Z 21008G13KT 34/19 A3006 RMK A01 T03430193  RH  043%=      5-min Rain = 0
KASR 201605Z 22008G13KT 34/19 A3006 RMK A01 T03390191  RH  043%=      5-min Rain = 0
KASR 201610Z 23008KT 34/19 A3006 RMK A01 T03430193  RH  042%=      5-min Rain = 0
KASR 201615Z 21005G10KT 35/19 A3006 RMK A01 T03450193  RH  042%=      5-min Rain = 0
KASR 201620Z 20007G12KT 35/19 A3006 RMK A01 T03480194  RH  041%=      5-min Rain = 0
KASR 201625Z 22006G13KT 35/19 A3006 RMK A01 T03490194  RH  041%=      5-min Rain = 0
KASR 201630Z 17007KT 35/20 A3005 RMK A01 T03500195  RH  041%=      5-min Rain = 0
KASR 201635Z 21005KT 35/20 A3005 RMK A01 T03530195  RH  041%=      5-min Rain = 0
KASR 201640Z 21006G11KT 36/19 A3006 RMK A01 T03560193  RH  040%=      5-min Rain = 0
KASR 201645Z 19006G11KT 36/19 A3006 RMK A01 T03550190  RH  039%=      5-min Rain = 0
KASR 201650Z 19008G13KT 36/19 A3006 RMK A01 T03570188  RH  038%=      5-min Rain = 0
KASR 201655Z 19008KT 36/18 A3006 RMK A01 T03560183  RH  037%=      5-min Rain = 0
KASR 201700Z 20008KT 36/19 A3005 RMK A01 T03570187  RH  038%=      5-min Rain = 0
KASR 201705Z 18008G14KT 36/19 A3005 RMK A01 T03590187  RH  037%=      5-min Rain = 0
KASR 201710Z 16010G16KT 36/19 A3005 RMK A01 T03610185  RH  037%=      5-min Rain = 0
KASR 201715Z 12004G9KT 36/18 A3005 RMK A01 T03590183  RH  036%=      5-min Rain = 0
KASR 201720Z 19005KT 36/19 A3005 RMK A01 T03620187  RH  037%=      5-min Rain = 0
KASR 201725Z 18009KT 37/19 A3005 RMK A01 T03650186  RH  036%=      5-min Rain = 0
KASR 201730Z 15006G14KT 36/18 A3005 RMK A01 T03610181  RH  036%=      5-min Rain = 0
KASR 201735Z 17006KT 36/18 A3005 RMK A01 T03610183  RH  036%=      5-min Rain = 0
KASR 201740Z 20007G12KT 36/18 A3005 RMK A01 T03640183  RH  036%=      5-min Rain = 0
KASR 201745Z 19006G11KT 37/18 A3005 RMK A01 T03660182  RH  035%=      5-min Rain = 0
KASR 201750Z 16009KT 37/17 A3005 RMK A01 T03670173  RH  033%=      5-min Rain = 0
KASR 201755Z 16005KT 37/17 A3004 RMK A01 T03690170  RH  032%=      5-min Rain = 0
KASR 201800Z 14008KT 37/18 A3004 RMK A01 T03720175  RH  032%=      5-min Rain = 0
KASR 201805Z 16007G13KT 37/17 A3004 RMK A01 T03710174  RH  032%=      5-min Rain = 0
KASR 201810Z 16007G13KT 37/18 A3004 RMK A01 T03700175  RH  033%=      5-min Rain = 0
KASR 201815Z 13008G14KT 37/18 A3004 RMK A01 T03690175  RH  033%=      5-min Rain = 0
KASR 201820Z 13008G13KT 37/17 A3004 RMK A01 T03700173  RH  032%=      5-min Rain = 0
KASR 201825Z 16009G16KT 37/17 A3004 RMK A01 T03740165  RH  030%=      5-min Rain = 0
KASR 201830Z 17009KT 37/16 A3004 RMK A01 T03740161  RH  029%=      5-min Rain = 0
KASR 201835Z 17004KT 37/16 A3004 RMK A01 T03710164  RH  030%=      5-min Rain = 0
KASR 201840Z 12007G13KT 38/16 A3003 RMK A01 T03750162  RH  029%=      5-min Rain = 0
KASR 201845Z 11005KT 37/15 A3003 RMK A01 T03740154  RH  028%=      5-min Rain = 0
KASR 201850Z 15005KT 38/17 A3003 RMK A01 T03780170  RH  030%=      5-min Rain = 0
KASR 201855Z 14007G12KT 38/17 A3003 RMK A01 T03780170  RH  030%=      5-min Rain = 0
KASR 201900Z 14008G13KT 37/17 A3003 RMK A01 T03730166  RH  030%=      5-min Rain = 0
KASR 201905Z 14010G16KT 38/16 A3003 RMK A01 T03760164  RH  029%=      5-min Rain = 0
KASR 201910Z 15005G10KT 38/17 A3003 RMK A01 T03760166  RH  030%=      5-min Rain = 0
KASR 201915Z 15008KT 38/17 A3002 RMK A01 T03780168  RH  030%=      5-min Rain = 0
KASR 201920Z 18008KT 38/17 A3002 RMK A01 T03810166  RH  029%=      5-min Rain = 0
KASR 201925Z 15005G11KT 38/16 A3002 RMK A01 T03840164  RH  028%=      5-min Rain = 0
KASR 201930Z 16009G14KT 38/17 A3002 RMK A01 T03810166  RH  029%=      5-min Rain = 0
KASR 201935Z 16008G15KT 38/16 A3002 RMK A01 T03820163  RH  028%=      5-min Rain = 0
KASR 201940Z 18005KT 38/16 A3001 RMK A01 T03820160  RH  028%=      5-min Rain = 0
KASR 201945Z 23008KT 38/16 A3001 RMK A01 T03840159  RH  027%=      5-min Rain = 0
KASR 201950Z 19007G12KT 38/16 A3001 RMK A01 T03840159  RH  027%=      5-min Rain = 0
KASR 201955Z 15007KT 38/16 A3001 RMK A01 T03820158  RH  027%=      5-min Rain = 0
KASR 202000Z 17003KT 38/16 A3001 RMK A01 T03810158  RH  028%=      5-min Rain = 0
KASR 202005Z 14008G14KT 39/16 A3001 RMK A01 T03880157  RH  026%=      5-min Rain = 0
KASR 202010Z 14008G13KT 39/16 A3001 RMK A01 T03890156  RH  026%=      5-min Rain = 0
KASR 202015Z 14008G13KT 39/15 A3001 RMK A01 T03870152  RH  026%=      5-min Rain = 0
KASR 202020Z 18006G13KT 38/15 A30 RMK A01 T03830149  RH  026%=      5-min Rain = 0
KASR 202025Z 16004G10KT 39/15 A30 RMK A01 T03860148  RH  025%=      5-min Rain = 0
KASR 202030Z 12009KT 39/15 A30 RMK A01 T03870148  RH  025%=      5-min Rain = 0
KASR 202035Z 15008KT 39/15 A30 RMK A01 T03910146  RH  024%=      5-min Rain = 0
KASR 202040Z 15004G11KT 39/14 A30 RMK A01 T03890142  RH  024%=      5-min Rain = 0
KASR 202045Z 13007G16KT 39/15 A2999 RMK A01 T03870151  RH  025%=      5-min Rain = 0
KASR 202050Z 15008G14KT 39/15 A2999 RMK A01 T03850149  RH  025%=      5-min Rain = 0
KASR 202055Z 16003G8KT 39/15 A2999 RMK A01 T03880147  RH  025%=      5-min Rain = 0
KASR 202100Z 12006G12KT 39/15 A2999 RMK A01 T03900151  RH  025%=      5-min Rain = 0
KASR 202105Z 13009G15KT 39/15 A2998 RMK A01 T03850152  RH  026%=      5-min Rain = 0
KASR 202110Z 11007KT 39/15 A2998 RMK A01 T03850152  RH  026%=      5-min Rain = 0
KASR 202115Z 15008G15KT 39/15 A2998 RMK A01 T03860151  RH  026%=      5-min Rain = 0
KASR 202120Z 12007G14KT 39/15 A2998 RMK A01 T03890153  RH  026%=      5-min Rain = 0
KASR 202125Z 12008G14KT 39/16 A2998 RMK A01 T03860157  RH  027%=      5-min Rain = 0
KASR 202130Z 16008G13KT 38/16 A2998 RMK A01 T03830158  RH  027%=      5-min Rain = 0
KASR 202135Z 18012KT 39/16 A2997 RMK A01 T03890158  RH  026%=      5-min Rain = 0
KASR 202140Z 13009G17KT 39/15 A2997 RMK A01 T03880154  RH  026%=      5-min Rain = 0
KASR 202145Z 14009G17KT 38/16 A2997 RMK A01 T03840157  RH  027%=      5-min Rain = 0
KASR 202150Z 14006G13KT 39/16 A2997 RMK A01 T03870156  RH  026%=      5-min Rain = 0
KASR 202155Z 16011G16KT 39/16 A2997 RMK A01 T03860156  RH  026%=      5-min Rain = 0
KASR 202200Z 14010G15KT 39/16 A2997 RMK A01 T03860156  RH  026%=      5-min Rain = 0
KASR 202205Z 12009G14KT 39/15 A2997 RMK A01 T03860151  RH  026%=      5-min Rain = 0
KASR 202210Z 12009G17KT 39/16 A2996 RMK A01 T03870158  RH  027%=      5-min Rain = 0
KASR 202215Z 11011KT 38/16 A2996 RMK A01 T03840161  RH  028%=      5-min Rain = 0
KASR 202220Z 13007G16KT 39/16 A2996 RMK A01 T03860158  RH  027%=      5-min Rain = 0
KASR 202225Z 14010G15KT 39/16 A2996 RMK A01 T03870156  RH  026%=      5-min Rain = 0
KASR 202230Z 15010KT 39/16 A2996 RMK A01 T03870159  RH  027%=      5-min Rain = 0
KASR 202235Z 13009G14KT 39/16 A2996 RMK A01 T03860155  RH  026%=      5-min Rain = 0
KASR 202240Z 13007G13KT 38/15 A2996 RMK A01 T03840153  RH  026%=      5-min Rain = 0
KASR 202245Z 15011KT 38/15 A2996 RMK A01 T03840153  RH  026%=      5-min Rain = 0
KASR 202250Z 15009G14KT 38/16 A2996 RMK A01 T03820156  RH  027%=      5-min Rain = 0
KASR 202255Z 17008G15KT 38/16 A2996 RMK A01 T03820155  RH  027%=      5-min Rain = 0
KASR 202300Z 14011G16KT 38/15 A2996 RMK A01 T03810148  RH  026%=      5-min Rain = 0
KASR 202305Z 15008G13KT 38/15 A2996 RMK A01 T03810146  RH  025%=      5-min Rain = 0
KASR 202310Z 11004G9KT 38/15 A2996 RMK A01 T03830147  RH  025%=      5-min Rain = 0
KASR 202315Z 13009KT 38/16 A2996 RMK A01 T03830156  RH  027%=      5-min Rain = 0
KASR 202320Z 12009KT 38/15 A2996 RMK A01 T03790154  RH  027%=      5-min Rain = 0
KASR 202325Z 16009KT 38/16 A2996 RMK A01 T03790158  RH  028%=      5-min Rain = 0
KASR 202330Z 14010KT 38/16 A2996 RMK A01 T03780156  RH  028%=      5-min Rain = 0
KASR 202335Z 13010KT 38/15 A2996 RMK A01 T03770153  RH  027%=      5-min Rain = 0
KASR 202340Z 13007G12KT 38/15 A2996 RMK A01 T03770153  RH  027%=      5-min Rain = 0
KASR 202345Z 15008KT 38/16 A2996 RMK A01 T03750157  RH  028%=      5-min Rain = 0
KASR 202350Z 16011KT 37/16 A2996 RMK A01 T03700157  RH  029%=      5-min Rain = 0
KASR 202355Z 14007G13KT 37/16 A2996 RMK A01 T03680155  RH  029%=      5-min Rain = 0
KASR 210000Z 15009KT 37/15 A2996 RMK A01 T03720149  RH  027%=      5-min Rain = 0
KASR 210005Z 15009KT 37/15 A2996 RMK A01 T03720152  RH  028%=      5-min Rain = 0
KASR 210010Z 14008KT 37/15 A2996 RMK A01 T03720153  RH  028%=      5-min Rain = 0
KASR 210015Z 14009KT 37/15 A2996 RMK A01 T03710150  RH  028%=      5-min Rain = 0
KASR 210020Z 14008KT 37/15 A2996 RMK A01 T03690151  RH  028%=      5-min Rain = 0
KASR 210025Z 14007G12KT 37/15 A2996 RMK A01 T03690152  RH  028%=      5-min Rain = 0
KASR 210030Z 13008KT 37/15 A2996 RMK A01 T03670151  RH  028%=      5-min Rain = 0
KASR 210035Z 13008KT 37/15 A2996 RMK A01 T03650149  RH  028%=      5-min Rain = 0
KASR 210040Z 14007G12KT 36/15 A2996 RMK A01 T03630150  RH  029%=      5-min Rain = 0
KASR 210045Z 15008KT 36/15 A2996 RMK A01 T03610149  RH  029%=      5-min Rain = 0
KASR 210050Z 15007KT 36/15 A2997 RMK A01 T03600147  RH  029%=      5-min Rain = 0
KASR 210055Z 14006KT 36/15 A2997 RMK A01 T03580148  RH  029%=      5-min Rain = 0
KASR 210100Z 14007KT 36/15 A2997 RMK A01 T03550149  RH  030%=      5-min Rain = 0
KASR 210105Z 14006KT 35/15 A2996 RMK A01 T03530149  RH  030%=      5-min Rain = 0
KASR 210110Z 14006KT 35/15 A2997 RMK A01 T03490150  RH  031%=      5-min Rain = 0
KASR 210115Z 13006KT 35/15 A2997 RMK A01 T03470150  RH  032%=      5-min Rain = 0
KASR 210120Z 14005KT 34/15 A2997 RMK A01 T03440151  RH  032%=      5-min Rain = 0
KASR 210125Z 14005KT 34/15 A2997 RMK A01 T03400152  RH  033%=      5-min Rain = 0
KASR 210130Z 14005KT 34/15 A2997 RMK A01 T03360153  RH  034%=      5-min Rain = 0
KASR 210135Z 14005KT 33/15 A2997 RMK A01 T03330153  RH  035%=      5-min Rain = 0
KASR 210140Z 14005KT 33/15 A2997 RMK A01 T03300153  RH  035%=      5-min Rain = 0
KASR 210145Z 14004KT 33/15 A2997 RMK A01 T03260153  RH  036%=      5-min Rain = 0
KASR 210150Z 14005KT 32/15 A2998 RMK A01 T03240153  RH  036%=      5-min Rain = 0
KASR 210155Z 13005KT 32/15 A2998 RMK A01 T03220153  RH  037%=      5-min Rain = 0
KASR 210200Z 13005KT 32/15 A2998 RMK A01 T03190153  RH  038%=      5-min Rain = 0
KASR 210205Z 13005KT 32/15 A2998 RMK A01 T03170153  RH  038%=      5-min Rain = 0
KASR 210210Z 13005KT 32/15 A2998 RMK A01 T03190153  RH  038%=      5-min Rain = 0
KASR 210215Z 13006KT 32/15 A2998 RMK A01 T03190154  RH  038%=      5-min Rain = 0
KASR 210220Z 13005KT 32/15 A2999 RMK A01 T03180154  RH  038%=      5-min Rain = 0
KASR 210225Z 13005KT 32/16 A2999 RMK A01 T03150155  RH  039%=      5-min Rain = 0
KASR 210230Z 13005KT 31/16 A2999 RMK A01 T03120155  RH  040%=      5-min Rain = 0
KASR 210235Z 13006KT 31/16 A2999 RMK A01 T03110156  RH  040%=      5-min Rain = 0
KASR 210240Z 13005KT 31/16 A2999 RMK A01 T03100157  RH  040%=      5-min Rain = 0
KASR 210245Z 13005KT 31/16 A2999 RMK A01 T03090157  RH  041%=      5-min Rain = 0
KASR 210250Z 13005KT 31/16 A2999 RMK A01 T03080157  RH  041%=      5-min Rain = 0
KASR 210255Z 13006KT 31/16 A30 RMK A01 T03060158  RH  042%=      5-min Rain = 0
KASR 210300Z 13006KT 31/16 A30 RMK A01 T03050159  RH  042%=      5-min Rain = 0
KASR 210305Z 13006KT 30/16 A30 RMK A01 T03040159  RH  042%=      5-min Rain = 0
KASR 210310Z 13005KT 30/16 A30 RMK A01 T03040159  RH  043%=      5-min Rain = 0
KASR 210315Z 13006KT 30/16 A30 RMK A01 T03030160  RH  043%=      5-min Rain = 0
KASR 210320Z 13005KT 30/16 A30 RMK A01 T03020160  RH  043%=      5-min Rain = 0
KASR 210325Z 13005KT 30/16 A30 RMK A01 T03010160  RH  044%=      5-min Rain = 0
KASR 210330Z 13005KT 30/16 A30 RMK A01 T03000160  RH  044%=      5-min Rain = 0
KASR 210335Z 14006KT 30/16 A30 RMK A01 T02980160  RH  044%=      5-min Rain = 0
KASR 210340Z 14005KT 30/16 A3001 RMK A01 T02990161  RH  044%=      5-min Rain = 0
KASR 210345Z 14006KT 30/16 A3001 RMK A01 T02990161  RH  044%=      5-min Rain = 0
KASR 210350Z 14006KT 30/16 A3001 RMK A01 T03000161  RH  044%=      5-min Rain = 0
KASR 210355Z 14006KT 30/16 A3001 RMK A01 T03000162  RH  044%=      5-min Rain = 0
KASR 210400Z 13006KT 30/16 A3001 RMK A01 T03000162  RH  044%=      5-min Rain = 0
KASR 210405Z 13006KT 30/16 A3001 RMK A01 T03010162  RH  044%=      5-min Rain = 0
KASR 210410Z 13005KT 30/16 A3001 RMK A01 T03000162  RH  044%=      5-min Rain = 0
KASR 210415Z 13005KT 30/16 A3001 RMK A01 T02980162  RH  045%=      5-min Rain = 0
KASR 210420Z 13005KT 30/16 A3001 RMK A01 T02960162  RH  046%=      5-min Rain = 0
KASR 210425Z 13005KT 30/16 A3002 RMK A01 T02950162  RH  046%=      5-min Rain = 0
KASR 210430Z 13006KT 29/16 A3002 RMK A01 T02940162  RH  046%=      5-min Rain = 0
KASR 210435Z 13006KT 29/16 A3002 RMK A01 T02940162  RH  046%=      5-min Rain = 0
KASR 210440Z 14006KT 29/16 A3001 RMK A01 T02930163  RH  046%=      5-min Rain = 0
KASR 210445Z 14006KT 29/16 A3001 RMK A01 T02930162  RH  046%=      5-min Rain = 0
KASR 210450Z 13006KT 29/16 A3001 RMK A01 T02930163  RH  046%=      5-min Rain = 0
KASR 210455Z 14006KT 29/16 A3001 RMK A01 T02920163  RH  047%=      5-min Rain = 0

Page generated in 0.0178 seconds.